createdAt,value
2022-09-10T00:01:37.156Z,96391.66
2022-09-10T00:04:10.441Z,96412.88
2022-09-10T00:06:39.491Z,96415.72
2022-09-10T00:09:08.805Z,96434.22
2022-09-10T00:11:38.609Z,96363.47
2022-09-10T00:14:13.484Z,96445.69
2022-09-10T00:16:41.890Z,96375.16
2022-09-10T00:19:10.366Z,96426.91
2022-09-10T00:21:38.585Z,96370.88
2022-09-10T00:24:07.764Z,96421.63
2022-09-10T00:26:39.256Z,96417.53
2022-09-10T00:29:18.399Z,96432.19
2022-09-10T00:31:46.912Z,96447.06
2022-09-10T00:34:15.368Z,96411.78
2022-09-10T00:36:45.097Z,96399.69
2022-09-10T00:39:16.267Z,96386.69
2022-09-10T00:41:48.223Z,96375.41
2022-09-10T00:45:11.183Z,96348.22
2022-09-10T00:47:41.083Z,96404.41
2022-09-10T00:50:20.002Z,96337.69
2022-09-10T00:52:48.409Z,96386.19
2022-09-10T00:55:17.815Z,96412.00
2022-09-10T00:57:48.643Z,96415.41
2022-09-10T01:00:19.321Z,96343.31
2022-09-10T01:02:48.193Z,96406.13
2022-09-10T01:05:18.128Z,96398.13
2022-09-10T01:07:48.136Z,96379.50
2022-09-10T01:10:21.985Z,96346.63
2022-09-10T01:13:17.719Z,96357.72
2022-09-10T01:15:56.419Z,96401.16
2022-09-10T01:18:37.394Z,96374.44
2022-09-10T01:21:16.978Z,96395.56
2022-09-10T01:24:19.553Z,96271.22
2022-09-10T01:27:31.961Z,96398.91
2022-09-10T01:30:11.108Z,96332.22
2022-09-10T01:32:52.765Z,96393.19
2022-09-10T01:35:30.202Z,96399.88
2022-09-10T01:38:04.728Z,96369.69
2022-09-10T01:40:35.046Z,96392.94
2022-09-10T01:43:09.676Z,96385.00
2022-09-10T01:45:59.242Z,96364.13
2022-09-10T01:48:51.346Z,96374.78
2022-09-10T01:51:29.663Z,96343.31
2022-09-10T01:54:24.786Z,96361.97
2022-09-10T01:57:03.297Z,96330.03
2022-09-10T01:59:40.261Z,96355.34
2022-09-10T02:02:19.251Z,96355.44
2022-09-10T02:04:50.425Z,96391.53
2022-09-10T02:07:23.522Z,96395.72
2022-09-10T02:09:54.868Z,96365.44
2022-09-10T02:12:24.861Z,96343.88
2022-09-10T02:15:14.041Z,96364.09
2022-09-10T02:18:10.728Z,96373.56
2022-09-10T02:20:40.225Z,96359.47
2022-09-10T02:23:10.165Z,96379.50
2022-09-10T02:25:38.458Z,96379.16
2022-09-10T02:28:07.192Z,96372.59
2022-09-10T02:30:35.433Z,96363.84
2022-09-10T02:33:03.633Z,96352.06
2022-09-10T02:35:33.135Z,96313.50
2022-09-10T02:38:01.575Z,96390.97
2022-09-10T02:40:31.816Z,96374.88
2022-09-10T02:43:00.120Z,96377.16
2022-09-10T02:45:30.306Z,96388.81
2022-09-10T02:48:00.270Z,96372.41
2022-09-10T02:50:28.903Z,96379.34
2022-09-10T02:52:59.253Z,96360.41
2022-09-10T02:55:27.472Z,96398.75
2022-09-10T02:57:55.811Z,96371.22
2022-09-10T03:00:24.286Z,96360.94
2022-09-10T03:02:52.883Z,96357.22
2022-09-10T03:05:21.166Z,96389.75
2022-09-10T03:07:50.059Z,96375.44
2022-09-10T03:10:20.480Z,96378.28
2022-09-10T03:12:48.802Z,96338.72
2022-09-10T03:15:18.089Z,96362.69
2022-09-10T03:17:46.238Z,96359.84
2022-09-10T03:20:20.310Z,96362.56
2022-09-10T03:22:49.319Z,96363.97
2022-09-10T03:25:19.473Z,96348.59
2022-09-10T03:27:47.722Z,96363.97
2022-09-10T03:30:16.036Z,96317.03
2022-09-10T03:32:44.265Z,96371.50
2022-09-10T03:35:15.761Z,96305.72
2022-09-10T03:37:44.732Z,96377.59
2022-09-10T03:40:16.978Z,96362.22
2022-09-10T03:42:46.881Z,96357.22
2022-09-10T03:45:15.975Z,96350.50
2022-09-10T03:47:45.174Z,96383.34
2022-09-10T03:50:13.732Z,96365.78
2022-09-10T03:52:42.357Z,96346.72
2022-09-10T03:55:11.201Z,96394.53
2022-09-10T03:57:41.649Z,96381.34
2022-09-10T04:00:12.901Z,96387.34
2022-09-10T04:02:46.883Z,96375.34
2022-09-10T04:05:16.162Z,96347.72
2022-09-10T04:07:44.382Z,96357.09
2022-09-10T04:10:14.626Z,96350.91
2022-09-10T04:12:46.374Z,96372.88
2022-09-10T04:15:20.390Z,96352.50
2022-09-10T04:17:53.307Z,96376.59
2022-09-10T04:20:26.637Z,96380.63
2022-09-10T04:23:03.273Z,96286.69
2022-09-10T04:25:33.681Z,96386.25
2022-09-10T04:28:04.835Z,96328.50
2022-09-10T04:30:35.484Z,96317.16
2022-09-10T04:33:03.819Z,96305.38
2022-09-10T04:35:34.047Z,96320.13
2022-09-10T04:38:05.241Z,96335.28
2022-09-10T04:40:34.293Z,96361.72
2022-09-10T04:45:56.954Z,96356.75
2022-09-10T04:48:27.001Z,96359.06
2022-09-10T04:51:15.127Z,96343.59
2022-09-10T04:53:45.773Z,96368.25
2022-09-10T04:56:14.465Z,96372.97
2022-09-10T04:58:44.118Z,96374.97
2022-09-10T05:01:14.198Z,96341.06
2022-09-10T05:03:44.548Z,96319.47
2022-09-10T05:06:13.360Z,96327.97
2022-09-10T05:08:41.904Z,96328.44
2022-09-10T05:11:11.697Z,96192.72
2022-09-10T05:13:39.849Z,96386.41
2022-09-10T05:16:08.753Z,96375.91
2022-09-10T05:18:39.393Z,96374.19
2022-09-10T05:21:09.279Z,96360.63
2022-09-10T05:23:39.436Z,96377.84
2022-09-10T05:26:08.487Z,96396.41
2022-09-10T05:28:36.786Z,96361.50
2022-09-10T05:31:09.706Z,96390.47
2022-09-10T05:33:40.804Z,96388.09
2022-09-10T05:36:11.856Z,96393.78
2022-09-10T05:38:42.267Z,96352.13
2022-09-10T05:41:11.438Z,96410.97
2022-09-10T05:43:44.302Z,96373.06
2022-09-10T05:46:13.735Z,96322.16
2022-09-10T05:48:47.649Z,96374.28
2022-09-10T05:51:16.343Z,96412.50
2022-09-10T05:53:45.361Z,96339.44
2022-09-10T05:56:13.845Z,96358.44
2022-09-10T05:58:45.110Z,96416.06
2022-09-10T06:01:15.446Z,96331.59
2022-09-10T06:03:46.767Z,96390.66
2022-09-10T06:06:17.111Z,96376.44
2022-09-10T06:08:53.389Z,96326.16
2022-09-10T06:11:35.654Z,96387.91
2022-09-10T06:14:04.004Z,96402.28
2022-09-10T06:16:32.762Z,96372.19
2022-09-10T06:19:04.227Z,96373.19
2022-09-10T06:21:33.393Z,96397.78
2022-09-10T06:24:01.731Z,96425.22
2022-09-10T06:26:33.985Z,96374.97
2022-09-10T06:29:07.027Z,96401.84
2022-09-10T06:31:36.044Z,96372.56
2022-09-10T06:34:06.200Z,96364.22
2022-09-10T06:36:35.308Z,96400.53
2022-09-10T06:39:04.305Z,96367.84
2022-09-10T06:41:45.016Z,96358.34
2022-09-10T06:44:32.939Z,96395.50
2022-09-10T06:50:03.586Z,96439.94
2022-09-10T06:52:33.912Z,96409.25
2022-09-10T06:55:06.788Z,96405.84
2022-09-10T06:57:40.097Z,96371.13
2022-09-10T07:00:10.775Z,96359.75
2022-09-10T07:02:40.940Z,96413.13
2022-09-10T07:05:12.348Z,96390.91
2022-09-10T07:07:43.422Z,96406.75
2022-09-10T07:10:12.013Z,96382.00
2022-09-10T07:12:40.457Z,96410.84
2022-09-10T07:15:12.016Z,96443.56
2022-09-10T07:17:40.431Z,96424.97
2022-09-10T07:20:13.047Z,96408.03
2022-09-10T07:22:47.327Z,96416.34
2022-09-10T07:25:22.916Z,96395.97
2022-09-10T07:28:04.620Z,96455.03
2022-09-10T07:30:35.863Z,96383.00
2022-09-10T07:33:04.157Z,96372.94
2022-09-10T07:35:36.163Z,96408.78
2022-09-10T07:38:05.107Z,96428.50
2022-09-10T07:40:36.822Z,96448.09
2022-09-10T07:43:06.446Z,96416.84
2022-09-10T07:45:34.999Z,96445.84
2022-09-10T07:48:05.704Z,96440.03
2022-09-10T07:50:39.805Z,96443.38
2022-09-10T07:53:08.322Z,96491.47
2022-09-10T07:55:37.107Z,96460.38
2022-09-10T07:58:06.478Z,96404.41
2022-09-10T08:00:35.765Z,96441.28
2022-09-10T08:03:09.513Z,96455.16
2022-09-10T08:05:39.686Z,96463.84
2022-09-10T08:08:10.501Z,96457.75
2022-09-10T08:10:38.840Z,96466.69
2022-09-10T08:13:08.117Z,96450.97
2022-09-10T08:15:36.521Z,96412.38
2022-09-10T08:18:05.605Z,96451.75
2022-09-10T08:20:33.846Z,96434.22
2022-09-10T08:23:03.970Z,96448.78
2022-09-10T08:25:33.562Z,96504.16
2022-09-10T08:28:02.966Z,96459.34
2022-09-10T08:30:32.886Z,96418.59
2022-09-10T08:33:01.450Z,96476.25
2022-09-10T08:35:29.678Z,96429.66
2022-09-10T08:38:04.473Z,96438.75
2022-09-10T08:40:33.649Z,96480.00
2022-09-10T08:43:02.647Z,96357.72
2022-09-10T08:45:34.573Z,96470.19
2022-09-10T08:48:09.859Z,96438.53
2022-09-10T08:50:46.121Z,96480.44
2022-09-10T08:53:28.450Z,96501.78
2022-09-10T08:56:06.738Z,96493.88
2022-09-10T08:58:44.097Z,96523.22
2022-09-10T09:01:21.015Z,96472.75
2022-09-10T09:03:50.107Z,96498.63
2022-09-10T09:06:29.143Z,96494.97
2022-09-10T09:09:01.198Z,96472.41
2022-09-10T09:11:42.530Z,96482.00
2022-09-10T09:14:38.016Z,96390.84
2022-09-10T09:17:30.427Z,96403.97
2022-09-10T09:20:15.156Z,96487.38
2022-09-10T09:22:52.808Z,96471.41
2022-09-10T09:25:34.162Z,96501.16
2022-09-10T09:28:19.874Z,96500.44
2022-09-10T09:30:50.729Z,96505.25
2022-09-10T09:33:25.040Z,96511.31
2022-09-10T09:35:58.944Z,96438.53
2022-09-10T09:38:33.861Z,96440.38
2022-09-10T09:41:07.996Z,96447.84
2022-09-10T09:43:52.344Z,96460.31
2022-09-10T09:46:24.338Z,96470.25
2022-09-10T09:49:00.263Z,96458.91
2022-09-10T09:51:35.399Z,96474.03
2022-09-10T09:57:01.592Z,96518.28
2022-09-10T09:59:32.239Z,96429.28
2022-09-10T10:02:11.599Z,96482.34
2022-09-10T10:04:42.603Z,96469.94
2022-09-10T10:07:12.561Z,96439.50
2022-09-10T10:09:44.683Z,96447.66
2022-09-10T10:12:21.362Z,96411.72
2022-09-10T10:14:49.926Z,96363.66
2022-09-10T10:17:32.480Z,96453.47
2022-09-10T10:20:09.255Z,96435.50
2022-09-10T10:22:38.950Z,96453.91
2022-09-10T10:25:38.311Z,96433.69
2022-09-10T10:28:17.068Z,96473.91
2022-09-10T10:30:45.477Z,96475.97
2022-09-10T10:33:29.356Z,96427.75
2022-09-10T10:36:06.084Z,96441.66
2022-09-10T10:38:37.724Z,96404.44
2022-09-10T10:41:47.962Z,96430.19
2022-09-10T10:44:53.530Z,96434.69
2022-09-10T10:47:35.958Z,96435.53
2022-09-10T10:50:17.865Z,96428.56
2022-09-10T10:53:26.809Z,96425.28
2022-09-10T10:56:08.521Z,96485.59
2022-09-10T10:58:55.942Z,96381.56
2022-09-10T11:01:29.250Z,96446.16
2022-09-10T11:04:05.289Z,96429.38
2022-09-10T11:06:40.094Z,96394.66
2022-09-10T11:09:15.698Z,96415.47
2022-09-10T11:11:55.267Z,96471.44
2022-09-10T11:14:32.793Z,96396.00
2022-09-10T11:17:11.483Z,96411.78
2022-09-10T11:19:44.269Z,96406.84
2022-09-10T11:22:17.821Z,96412.59
2022-09-10T11:24:51.702Z,96409.13
2022-09-10T11:27:26.217Z,96390.13
2022-09-10T11:29:59.573Z,96401.16
2022-09-10T11:32:38.330Z,96441.84
2022-09-10T11:35:17.884Z,96449.63
2022-09-10T11:37:57.599Z,96443.69
2022-09-10T11:40:36.483Z,96361.03
2022-09-10T11:43:12.344Z,96391.38
2022-09-10T11:45:47.714Z,96414.88
2022-09-10T11:48:23.409Z,96406.19
2022-09-10T11:50:57.491Z,96457.56
2022-09-10T11:53:26.791Z,96388.88
2022-09-10T11:56:26.345Z,96417.50
2022-09-10T11:59:19.998Z,96397.66
2022-09-10T12:02:05.154Z,96377.84
2022-09-10T12:04:50.176Z,96460.41
2022-09-10T12:07:34.633Z,96439.69
2022-09-10T12:10:15.435Z,96411.63
2022-09-10T12:12:46.026Z,96411.06
2022-09-10T12:15:21.642Z,96302.81
2022-09-10T12:17:55.922Z,96356.50
2022-09-10T12:20:31.168Z,96394.66
2022-09-10T12:22:59.749Z,96379.50
2022-09-10T12:25:34.260Z,96371.03
2022-09-10T12:28:07.741Z,96398.31
2022-09-10T12:31:02.819Z,96251.44
2022-09-10T12:34:17.140Z,96429.41
2022-09-10T12:37:25.748Z,96423.50
2022-09-10T12:40:45.385Z,96340.84
2022-09-10T12:43:57.543Z,96300.19
2022-09-10T12:46:27.020Z,96322.22
2022-09-10T12:49:11.896Z,96354.53
2022-09-10T12:51:58.017Z,96387.16
2022-09-10T12:54:48.868Z,96366.81
2022-09-10T12:57:28.627Z,96393.50
2022-09-10T13:00:25.451Z,96385.84
2022-09-10T13:03:11.375Z,96444.88
2022-09-10T13:05:51.924Z,96354.47
2022-09-10T13:08:25.767Z,96396.91
2022-09-10T13:11:16.693Z,96371.59
2022-09-10T13:13:51.681Z,96389.63
2022-09-10T13:16:22.565Z,96410.09
2022-09-10T13:18:56.785Z,96380.03
2022-09-10T13:21:54.986Z,96364.28
2022-09-10T13:24:40.181Z,96401.44
2022-09-10T13:27:23.942Z,96363.56
2022-09-10T13:30:07.988Z,96385.00
2022-09-10T13:32:42.864Z,96374.81
2022-09-10T13:35:57.996Z,96356.41
2022-09-10T13:39:00.907Z,96383.56
2022-09-10T13:42:24.557Z,96407.22
2022-09-10T13:45:19.034Z,96391.63
2022-09-10T13:47:52.746Z,96335.78
2022-09-10T13:50:26.185Z,96368.72
2022-09-10T13:52:57.207Z,96407.19
2022-09-10T13:55:29.806Z,96349.59
2022-09-10T13:58:07.245Z,96405.25
2022-09-10T14:00:41.854Z,96368.88
2022-09-10T14:03:17.121Z,96355.81
2022-09-10T14:05:50.108Z,96384.84
2022-09-10T14:08:23.629Z,96364.09
2022-09-10T14:11:00.896Z,96353.19
2022-09-10T14:13:42.953Z,96392.53
2022-09-10T14:16:17.408Z,96383.53
2022-09-10T14:18:50.930Z,96403.41
2022-09-10T14:21:26.904Z,96334.00
2022-09-10T14:23:57.210Z,96379.38
2022-09-10T14:26:28.076Z,96390.44
2022-09-10T14:29:01.056Z,96300.72
2022-09-10T14:31:36.278Z,96357.25
2022-09-10T14:34:32.157Z,96347.69
2022-09-10T14:37:01.906Z,96279.41
2022-09-10T14:39:30.493Z,96315.16
2022-09-10T14:42:25.219Z,96327.88
2022-09-10T14:44:55.380Z,96356.28
2022-09-10T14:47:34.833Z,96338.91
2022-09-10T14:50:31.080Z,96285.44
2022-09-10T14:52:59.858Z,96331.16
2022-09-10T14:55:30.828Z,96354.88
2022-09-10T14:58:00.063Z,96269.44
2022-09-10T15:00:30.212Z,96362.44
2022-09-10T15:02:58.522Z,96362.09
2022-09-10T15:05:27.181Z,96378.97
2022-09-10T15:07:55.359Z,96387.19
2022-09-10T15:10:23.585Z,96361.44
2022-09-10T15:12:53.183Z,96347.78
2022-09-10T15:15:21.637Z,96384.38
2022-09-10T15:17:51.145Z,96406.84
2022-09-10T15:20:24.655Z,96390.13
2022-09-10T15:22:55.385Z,96347.59
2022-09-10T15:25:38.382Z,96350.88
2022-09-10T15:28:07.851Z,96374.97
2022-09-10T15:30:36.961Z,96386.16
2022-09-10T15:33:31.784Z,96363.06
2022-09-10T15:36:00.268Z,96404.59
2022-09-10T15:38:28.506Z,96398.88
2022-09-10T15:41:12.448Z,96408.91
2022-09-10T15:43:43.933Z,96370.50
2022-09-10T15:46:13.461Z,96366.41
2022-09-10T15:48:43.463Z,96402.16
2022-09-10T15:51:15.989Z,96399.53
2022-09-10T15:53:46.077Z,96396.25
2022-09-10T15:56:14.600Z,96392.59
2022-09-10T15:58:46.110Z,96388.91
2022-09-10T16:01:38.789Z,96369.31
2022-09-10T16:04:15.818Z,96399.16
2022-09-10T16:06:44.315Z,96390.75
2022-09-10T16:09:14.739Z,96365.63
2022-09-10T16:11:44.421Z,96409.78
2022-09-10T16:14:15.861Z,96416.09
2022-09-10T16:16:45.728Z,96427.94
2022-09-10T16:19:15.474Z,96203.03
2022-09-10T16:21:45.777Z,96380.94
2022-09-10T16:24:13.971Z,96367.66
2022-09-10T16:26:45.878Z,96357.22
2022-09-10T16:29:16.512Z,96368.69
2022-09-10T16:31:46.023Z,96370.09
2022-09-10T16:34:19.133Z,96401.94
2022-09-10T16:36:48.821Z,96405.38
2022-09-10T16:39:18.350Z,96395.63
2022-09-10T16:41:48.900Z,96349.38
2022-09-10T16:44:18.870Z,96444.41
2022-09-10T16:46:48.048Z,96397.81
2022-09-10T16:49:19.759Z,96459.59
2022-09-10T16:51:50.021Z,96409.06
2022-09-10T16:54:20.871Z,96379.25
2022-09-10T16:56:50.297Z,96436.59
2022-09-10T16:59:21.381Z,96455.28
2022-09-10T17:01:51.868Z,96485.38
2022-09-10T17:04:29.285Z,96455.13
2022-09-10T17:06:59.030Z,96478.63
2022-09-10T17:09:27.632Z,96366.91
2022-09-10T17:11:55.930Z,96374.50
2022-09-10T17:14:24.980Z,96414.06
2022-09-10T17:16:53.258Z,96488.19
2022-09-10T17:19:26.342Z,96492.03
2022-09-10T17:21:56.854Z,96476.03
2022-09-10T17:24:27.011Z,96383.88
2022-09-10T17:26:56.071Z,96444.91
2022-09-10T17:29:26.464Z,96451.06
2022-09-10T17:31:57.392Z,96399.31
2022-09-10T17:34:28.094Z,96451.25
2022-09-10T17:36:56.330Z,96509.72
2022-09-10T17:39:28.156Z,96473.03
2022-09-10T17:41:56.624Z,96400.00
2022-09-10T17:44:25.693Z,96448.78
2022-09-10T17:46:55.345Z,96486.88
2022-09-10T17:49:24.414Z,96350.41
2022-09-10T17:51:54.444Z,96457.75
2022-09-10T17:54:23.443Z,96479.53
2022-09-10T17:56:51.649Z,96504.81
2022-09-10T17:59:19.961Z,96453.56
2022-09-10T18:01:48.203Z,96437.72
2022-09-10T18:04:21.587Z,96447.16
2022-09-10T18:06:52.392Z,96457.81
2022-09-10T18:09:23.550Z,96477.59
2022-09-10T18:11:52.019Z,96502.66
2022-09-10T18:14:21.921Z,96456.22
2022-09-10T18:16:51.422Z,96498.53
2022-09-10T18:19:19.849Z,96523.13
2022-09-10T18:21:49.184Z,96469.16
2022-09-10T18:24:19.485Z,96471.28
2022-09-10T18:26:50.746Z,96465.34
2022-09-10T18:29:21.312Z,96499.75
2022-09-10T18:31:52.196Z,96484.16
2022-09-10T18:34:23.887Z,96374.34
2022-09-10T18:36:54.715Z,96446.44
2022-09-10T18:39:24.897Z,96520.53
2022-09-10T18:41:55.101Z,96469.16
2022-09-10T18:44:26.176Z,96459.94
2022-09-10T18:46:56.049Z,96452.22
2022-09-10T18:49:25.929Z,96497.41
2022-09-10T18:51:56.581Z,96475.25
2022-09-10T18:54:28.095Z,96552.03
2022-09-10T18:56:58.139Z,96438.19
2022-09-10T18:59:27.449Z,96455.78
2022-09-10T19:01:56.852Z,96447.22
2022-09-10T19:04:27.778Z,96451.41
2022-09-10T19:06:57.900Z,96493.22
2022-09-10T19:09:28.531Z,96495.09
2022-09-10T19:12:00.603Z,96481.81
2022-09-10T19:14:31.513Z,96571.78
2022-09-10T19:17:01.518Z,96475.56
2022-09-10T19:19:31.888Z,96458.16
2022-09-10T19:22:03.578Z,96487.28
2022-09-10T19:24:53.522Z,96508.09
2022-09-10T19:27:23.074Z,96513.69
2022-09-10T19:29:51.798Z,96231.56
2022-09-10T19:32:20.425Z,96452.75
2022-09-10T19:34:50.913Z,96539.16
2022-09-10T19:37:19.558Z,96509.13
2022-09-10T19:39:47.842Z,96533.25
2022-09-10T19:42:17.264Z,96480.59
2022-09-10T19:44:46.757Z,96447.66
2022-09-10T19:47:14.924Z,96491.19
2022-09-10T19:49:43.170Z,96500.13
2022-09-10T19:52:11.698Z,96498.56
2022-09-10T19:54:39.881Z,96492.38
2022-09-10T19:57:08.159Z,96537.72
2022-09-10T19:59:36.340Z,96503.91
2022-09-10T20:02:06.003Z,96511.31
2022-09-10T20:04:36.135Z,96487.59
2022-09-10T20:07:04.377Z,96527.88
2022-09-10T20:09:34.766Z,96497.66
2022-09-10T20:12:05.722Z,96550.41
2022-09-10T20:14:33.889Z,96456.16
2022-09-10T20:17:03.074Z,96465.50
2022-09-10T20:19:32.616Z,96499.84
2022-09-10T20:22:00.798Z,96521.09
2022-09-10T20:24:29.080Z,96505.94
2022-09-10T20:26:57.699Z,96533.25
2022-09-10T20:29:26.455Z,96480.16
2022-09-10T20:31:54.637Z,96506.06
2022-09-10T20:34:23.546Z,96524.75
2022-09-10T20:36:53.778Z,96486.41
2022-09-10T20:39:25.208Z,96462.72
2022-09-10T20:41:53.874Z,96500.50
2022-09-10T20:44:22.952Z,96545.38
2022-09-10T20:46:51.496Z,96435.13
2022-09-10T20:49:20.628Z,96520.94
2022-09-10T20:51:48.878Z,96519.47
2022-09-10T20:54:20.179Z,96504.34
2022-09-10T20:56:48.439Z,96500.19
2022-09-10T20:59:19.174Z,96438.25
2022-09-10T21:01:50.637Z,96543.38
2022-09-10T21:04:19.930Z,96497.59
2022-09-10T21:06:48.133Z,96535.09
2022-09-10T21:09:17.794Z,96477.69
2022-09-10T21:11:46.127Z,96508.00
2022-09-10T21:14:15.056Z,96510.81
2022-09-10T21:16:43.532Z,96517.06
2022-09-10T21:19:13.992Z,96492.69
2022-09-10T21:21:44.911Z,96466.16
2022-09-10T21:24:15.279Z,96523.03
2022-09-10T21:26:45.462Z,96496.72
2022-09-10T21:29:15.856Z,96516.56
2022-09-10T21:31:45.409Z,96530.63
2022-09-10T21:34:14.452Z,96477.22
2022-09-10T21:36:43.783Z,96510.34
2022-09-10T21:39:17.273Z,96511.03
2022-09-10T21:41:48.926Z,96522.97
2022-09-10T21:44:19.807Z,96496.56
2022-09-10T21:46:49.291Z,96537.00
2022-09-10T21:49:18.405Z,96558.44
2022-09-10T21:51:46.826Z,96505.28
2022-09-10T21:54:18.662Z,96510.19
2022-09-10T21:56:48.637Z,96543.59
2022-09-10T21:59:16.997Z,96536.66
2022-09-10T22:01:47.327Z,96530.72
2022-09-10T22:04:22.216Z,96520.78
2022-09-10T22:06:51.321Z,96390.97
2022-09-10T22:09:19.857Z,96656.81
2022-09-10T22:11:51.992Z,96484.50
2022-09-10T22:14:22.405Z,96511.47
2022-09-10T22:16:51.752Z,96538.84
2022-09-10T22:19:23.928Z,96572.50
2022-09-10T22:21:54.121Z,96487.13
2022-09-10T22:24:22.413Z,96516.84
2022-09-10T22:26:52.024Z,96505.66
2022-09-10T22:29:21.570Z,96537.00
2022-09-10T22:31:50.721Z,96499.72
2022-09-10T22:34:20.711Z,96458.13
2022-09-10T22:36:49.714Z,96518.88
2022-09-10T22:39:19.923Z,96500.69
2022-09-10T22:41:49.728Z,96593.75
2022-09-10T22:44:20.107Z,96539.66
2022-09-10T22:46:48.742Z,96498.72
2022-09-10T22:49:17.924Z,96533.75
2022-09-10T22:51:46.450Z,96557.25
2022-09-10T22:54:16.575Z,96554.78
2022-09-10T22:56:45.385Z,96553.72
2022-09-10T22:59:15.475Z,96558.34
2022-09-10T23:01:48.198Z,96481.19
2022-09-10T23:04:22.266Z,96555.72
2022-09-10T23:06:50.441Z,96548.41
2022-09-10T23:09:19.146Z,96545.59
2022-09-10T23:11:47.610Z,96600.41
2022-09-10T23:14:19.259Z,96563.47
2022-09-10T23:16:51.853Z,96496.38
2022-09-10T23:19:23.534Z,96559.28
2022-09-10T23:21:53.921Z,96574.69
2022-09-10T23:24:24.412Z,96548.22
2022-09-10T23:26:53.204Z,96580.97
2022-09-10T23:29:23.015Z,96523.72
2022-09-10T23:31:54.325Z,96525.81
2022-09-10T23:34:23.501Z,96507.91
2022-09-10T23:36:52.807Z,96523.41
2022-09-10T23:39:23.483Z,96536.81
2022-09-10T23:41:53.647Z,96495.53
2022-09-10T23:44:22.118Z,96487.78
2022-09-10T23:46:51.956Z,96510.63
2022-09-10T23:49:20.137Z,96514.50
2022-09-10T23:51:49.034Z,96572.50
2022-09-10T23:54:17.773Z,96519.69
2022-09-10T23:56:46.243Z,96404.69
2022-09-10T23:59:15.269Z,96548.88
